This is the latest recevied weather packets stored in our database for station/object K5KHP. If no packets are shown the sender has not sent any weather packets the latest 10 day(s).
| Time | Temp. | Humidity | Pressure | Rain* | Wind** | Luminosity | Snow |
|---|---|---|---|---|---|---|---|
| 1777654905 | 20° C | 72% | 1014.7 hPa | 0 mm | - | 276 W/m² | - |
| 1777654603 | 19.44° C | 73% | 1014.6 hPa | 0 mm | - | 576 W/m² | - |
| 1777654299 | 19.44° C | 74% | 1014.9 hPa | 0 mm | - | 491 W/m² | - |
| 1777653998 | 19.44° C | 73% | 1014.7 hPa | 0 mm | - | 499 W/m² | - |
| 1777653694 | 19.44° C | 75% | 1014.7 hPa | 0 mm | - | 481 W/m² | - |
| 1777653391 | 18.33° C | 78% | 1014.8 hPa | 0 mm | - | 465 W/m² | - |
| 1777653088 | 18.33° C | 77% | 1014.7 hPa | 0 mm | - | 426 W/m² | - |
| 1777652784 | 18.33° C | 77% | 1014.8 hPa | 0 mm | - | 448 W/m² | - |
| 1777652481 | 17.78° C | 79% | 1014.7 hPa | 0 mm | - | 252 W/m² | - |
| 1777652178 | 17.78° C | 79% | 1014.8 hPa | 0 mm | - | 166 W/m² | - |
| 1777651875 | 17.78° C | 80% | 1014.6 hPa | 0 mm | - | 163 W/m² | - |
| 1777651572 | 17.22° C | 80% | 1014.5 hPa | 0 mm | - | 168 W/m² | - |
| 1777651269 | 17.78° C | 78% | 1014.4 hPa | 0 mm | - | 249 W/m² | - |
| 1777650965 | 18.89° C | 77% | 1014.6 hPa | 0 mm | - | 301 W/m² | - |
| 1777650662 | 17.78° C | 78% | 1014.5 hPa | 0 mm | - | 267 W/m² | - |
| 1777650360 | 17.22° C | 80% | 1014.6 hPa | 0 mm | - | 245 W/m² | - |
| 1777650056 | 17.78° C | 80% | 1014.4 hPa | 0 mm | - | 211 W/m² | - |
| 1777649754 | 17.22° C | 80% | 1014.5 hPa | 0 mm | - | 224 W/m² | - |
| 1777649451 | 17.22° C | 81% | 1014.5 hPa | 0 mm | - | 218 W/m² | - |
| 1777649147 | 16.67° C | 83% | 1014.4 hPa | 0 mm | - | 206 W/m² | - |
| 1777648844 | 16.67° C | 83% | 1014.4 hPa | 0 mm | - | 197 W/m² | - |
| 1777648541 | 16.67° C | 82% | 1014.6 hPa | 0 mm | - | 187 W/m² | - |
| 1777648238 | 16.11° C | 84% | 1014.4 hPa | 0 mm | - | 167 W/m² | - |
| 1777647933 | 15.56° C | 86% | 1014.4 hPa | 0 mm | - | 148 W/m² | - |
| 1777647630 | 15.56° C | 87% | 1014.3 hPa | 0 mm | - | 140 W/m² | - |
* Rain latest hour (hover to see other rain measurements)
** Current wind speed in m/s (hover to see current wind gust speed)